Airfield :
LOGIN :

Register | Disclaimer

   EN    FR    IT 

 










Legend :    VFR   Marginal VFR   IFR   Intensive IFR   Very Intensive IFR
Visi :
Ceiling :
>= 8 km
>= 3000ft
5 to 8 km
1000 to 3000 ft
1500m to 5 km
500 to 1000 ft
800 to 1500m
200 to 500 ft
< 800m
< 200 ft
Symbols :   Thunderstorms  Fog  Heavy snow  Heavy precipitations  Wind > 20 kt
SIGMETs :     Misc.  Thunderstorms  Icing  Turbulence  Mountain Waves  Volcanic Ashes







- Airport Elevation : 778 ft
- IATA code : BRQ


LKTB - Brno-Turany

CURRENT METAR :
  • 180630Z 34007KT 9999 OVC027 M01/M04 Q1023 NOSIG

EXPIRED METARs :
  • 180600Z 32005KT 9999 BKN024 M01/M03 Q1023 NOSIG
  • 180530Z 30003KT 260V340 9999 BKN031 M01/M04 Q1023 TEMPO SHSN
  • 180500Z 31003KT 280V350 9999 BKN029 BKN037 M01/M04 Q1022 TEMPO SN
  • 180430Z 31006KT 9999 BKN032 M01/M04 Q1022 NOSIG
  • 180400Z 30005KT 9999 BKN033 M01/M04 Q1022 NOSIG

TAF TAF LKTB
Valid from the 18 at 06:00 until the 19 at 12:00 UTC


180500Z 1806/1912 30005KT 9999 SCT045
TEMPO 1806/1816 BKN030
PROB30
TEMPO 1806/1812 7000 -SN BKN020
BECMG 1816/1818 CAVOK
No reported NOTAMs for that airfield.



MET'MAP, your aeronautical weather chart ! - Copyright ORBIFLY December 2007 - Disclaimer

ORBIFLY MET'MAP TEAM :

Programming & Development : Alexandra Zaïnal
Concept & Development : Baudouin d'Aumeries
Co-Development & Prog : Marc-Olivier Méhu
Technical & hardware support : Manuel Goepfert

Contact : metmap@orbifly.com




SOURCES & CREDITS :

   NOAA